<?xml version="1.0" encoding="utf-8"?>
<gpx xmlns:xsi="http://www.w3.org/2001/XMLSchema-instance" xmlns:xsd="http://www.w3.org/2001/XMLSchema" version="1.1" creator="Shapelink.com" xmlns="http://www.topografix.com/GPX/1/1" xmlns:gpxtpx="http://www.garmin.com/xmlschemas/TrackPointExtension/v1">
  <metadata>
    <name>Natación 1.67 km, 2015-06-23</name>
    <desc></desc>
    <author><name>Henrik Amren</name></author> 
    <time>2015-06-23T06:55:54Z</time>
  </metadata>
  <trk>
    <name>Natación 1.67 km, 2015-06-23</name>
    <trkseg>
      <trkpt lat="39.8361723" lon="3.1256793">
        <ele>0</ele>
        <time>2015-06-23T06:55:54Z</time>
      </trkpt>
      <trkpt lat="39.8365917" lon="3.1258252">
        <ele>0</ele>
        <time>2015-06-23T06:56:29Z</time>
      </trkpt>
      <trkpt lat="39.8368294" lon="3.1260553">
        <ele>0</ele>
        <time>2015-06-23T06:57:07Z</time>
      </trkpt>
      <trkpt lat="39.8373315" lon="3.1264874">
        <ele>0</ele>
        <time>2015-06-23T06:58:02Z</time>
      </trkpt>
      <trkpt lat="39.8375875" lon="3.1270751">
        <ele>0</ele>
        <time>2015-06-23T06:59:22Z</time>
      </trkpt>
      <trkpt lat="39.8380764" lon="3.1274895">
        <ele>0</ele>
        <time>2015-06-23T07:00:49Z</time>
      </trkpt>
      <trkpt lat="39.838341" lon="3.1282342">
        <ele>0</ele>
        <time>2015-06-23T07:02:38Z</time>
      </trkpt>
      <trkpt lat="39.8387653" lon="3.1285682">
        <ele>0</ele>
        <time>2015-06-23T07:03:24Z</time>
      </trkpt>
      <trkpt lat="39.8388653" lon="3.1288194">
        <ele>0</ele>
        <time>2015-06-23T07:03:43Z</time>
      </trkpt>
      <trkpt lat="39.8394774" lon="3.1291831">
        <ele>0</ele>
        <time>2015-06-23T07:04:18Z</time>
      </trkpt>
      <trkpt lat="39.8397073" lon="3.1295672">
        <ele>0</ele>
        <time>2015-06-23T07:05:50Z</time>
      </trkpt>
      <trkpt lat="39.8397109" lon="3.1301657">
        <ele>0</ele>
        <time>2015-06-23T07:07:07Z</time>
      </trkpt>
      <trkpt lat="39.8396132" lon="3.1307014">
        <ele>0</ele>
        <time>2015-06-23T07:08:01Z</time>
      </trkpt>
      <trkpt lat="39.8401183" lon="3.131411">
        <ele>0</ele>
        <time>2015-06-23T07:09:20Z</time>
      </trkpt>
      <trkpt lat="39.8402792" lon="3.1311049">
        <ele>0</ele>
        <time>2015-06-23T07:09:51Z</time>
      </trkpt>
      <trkpt lat="39.8402951" lon="3.1310532">
        <ele>0</ele>
        <time>2015-06-23T07:09:57Z</time>
      </trkpt>
      <trkpt lat="39.840201" lon="3.1301421">
        <ele>0</ele>
        <time>2015-06-23T07:11:22Z</time>
      </trkpt>
      <trkpt lat="39.8400417" lon="3.12977">
        <ele>0</ele>
        <time>2015-06-23T07:12:10Z</time>
      </trkpt>
      <trkpt lat="39.8395969" lon="3.1290368">
        <ele>0</ele>
        <time>2015-06-23T07:12:56Z</time>
      </trkpt>
      <trkpt lat="39.8396138" lon="3.1288293">
        <ele>0</ele>
        <time>2015-06-23T07:13:49Z</time>
      </trkpt>
      <trkpt lat="39.8392862" lon="3.1282218">
        <ele>0</ele>
        <time>2015-06-23T07:14:46Z</time>
      </trkpt>
      <trkpt lat="39.8390316" lon="3.1277643">
        <ele>0</ele>
        <time>2015-06-23T07:15:54Z</time>
      </trkpt>
      <trkpt lat="39.8386849" lon="3.1277119">
        <ele>0</ele>
        <time>2015-06-23T07:16:35Z</time>
      </trkpt>
      <trkpt lat="39.8383151" lon="3.127238">
        <ele>0</ele>
        <time>2015-06-23T07:18:00Z</time>
      </trkpt>
      <trkpt lat="39.8380261" lon="3.1266691">
        <ele>0</ele>
        <time>2015-06-23T07:19:01Z</time>
      </trkpt>
      <trkpt lat="39.8377366" lon="3.1260954">
        <ele>0</ele>
        <time>2015-06-23T07:20:07Z</time>
      </trkpt>
      <trkpt lat="39.8372924" lon="3.1258875">
        <ele>0</ele>
        <time>2015-06-23T07:20:57Z</time>
      </trkpt>
      <trkpt lat="39.8367107" lon="3.1255448">
        <ele>0</ele>
        <time>2015-06-23T07:22:32Z</time>
      </trkpt>
      <trkpt lat="39.8363543" lon="3.1248493">
        <ele>0</ele>
        <time>2015-06-23T07:23:56Z</time>
      </trkpt>
      <trkpt lat="39.8358422" lon="3.1245733">
        <ele>0</ele>
        <time>2015-06-23T07:24:46Z</time>
      </trkpt>
      <trkpt lat="39.8357168" lon="3.1244266">
        <ele>0</ele>
        <time>2015-06-23T07:25:18Z</time>
      </trkpt>
    </trkseg>
  </trk>
</gpx>